TimeEDT,TemperatureF,Dew PointF,Humidity,Sea Level PressureIn,VisibilityMPH,Wind Direction,Wind SpeedMPH,Gust SpeedMPH,PrecipitationIn,Events,Conditions,WindDirDegrees,DateUTC
12:54 AM,35.1,33.1,92,30.46,10.0,Calm,Calm,-,N/A,,Clear,0,2008-11-01 04:54:00
1:54 AM,36.0,32.0,86,30.45,10.0,Calm,Calm,-,N/A,,Clear,0,2008-11-01 05:54:00
2:54 AM,35.1,33.1,92,30.43,10.0,Calm,Calm,-,N/A,,Clear,0,2008-11-01 06:54:00
3:54 AM,34.0,30.9,89,30.43,10.0,Calm,Calm,-,N/A,,Clear,0,2008-11-01 07:54:00
4:54 AM,32.0,30.0,92,30.42,10.0,Calm,Calm,-,N/A,,Clear,0,2008-11-01 08:54:00
5:54 AM,32.0,30.0,92,30.42,10.0,Calm,Calm,-,N/A,,Clear,0,2008-11-01 09:54:00
6:54 AM,30.0,28.9,96,30.43,10.0,Calm,Calm,-,N/A,,Clear,0,2008-11-01 10:54:00
7:54 AM,30.9,28.9,92,30.44,10.0,Calm,Calm,-,N/A,,Clear,0,2008-11-01 11:54:00
8:54 AM,35.1,32.0,89,30.44,10.0,Calm,Calm,-,N/A,,Clear,0,2008-11-01 12:54:00
9:54 AM,45.0,34.0,65,30.44,10.0,NNW,6.9,-,N/A,,Clear,330,2008-11-01 13:54:00
10:54 AM,54.0,32.0,43,30.42,10.0,North,6.9,-,N/A,,Clear,360,2008-11-01 14:54:00
11:54 AM,60.1,30.0,32,30.40,10.0,North,11.5,-,N/A,,Clear,350,2008-11-01 15:54:00
12:54 PM,64.0,27.0,25,30.38,10.0,North,11.5,-,N/A,,Clear,350,2008-11-01 16:54:00
1:54 PM,66.0,30.0,26,30.35,10.0,NNW,10.4,-,N/A,,Clear,330,2008-11-01 17:54:00
2:54 PM,66.9,28.0,23,30.32,10.0,NNW,5.8,-,N/A,,Clear,340,2008-11-01 18:54:00
3:54 PM,69.1,27.0,21,30.30,10.0,NNW,6.9,-,N/A,,Clear,330,2008-11-01 19:54:00
4:54 PM,68.0,26.1,21,30.29,10.0,NW,6.9,-,N/A,,Clear,320,2008-11-01 20:54:00
5:54 PM,64.9,28.9,26,30.29,10.0,NW,4.6,-,N/A,,Clear,320,2008-11-01 21:54:00
6:54 PM,57.0,30.9,37,30.32,10.0,Calm,Calm,-,N/A,,Clear,0,2008-11-01 22:54:00
7:54 PM,52.0,33.1,49,30.34,10.0,SSE,3.5,-,N/A,,Clear,150,2008-11-01 23:54:00
8:54 PM,48.9,33.1,54,30.34,10.0,Calm,Calm,-,N/A,,Clear,0,2008-11-02 00:54:00
9:54 PM,44.1,35.1,71,30.35,10.0,Calm,Calm,-,N/A,,Clear,0,2008-11-02 01:54:00
10:54 PM,42.1,34.0,73,30.35,10.0,Calm,Calm,-,N/A,,Clear,0,2008-11-02 02:54:00
11:54 PM,41.0,34.0,76,30.34,10.0,Calm,Calm,-,N/A,,Clear,0,2008-11-02 03:54:00